Terminal Aerodrome Forecast
Issued by NWS Anchorage, AK

Home | Current Version | Previous Version | Text Only | Print | Product List | Glossary On
Versions: 1 2 3 4 5 6 7 8 9 10 11 12 13 14 15 16 17 18 19 20 21 22 23 24 25 26 27 28 29 30 31 32 33 34 35 36 37
000
FTAK31 PANC 220134 AAA
TAFANC
TAF AMD
PANC 220134Z 2202/2306 33003KT 6SM -SN SCT015 OVC035
      TEMPO 2202/2206 2SM -SN BR BKN015
     FM220600 VRB03KT P6SM -SHSN FEW015 SCT025 BKN050
     FM221800 VRB05KT 5SM -SN BR SCT015 BKN025=

USA.gov is the U.S. government's official web portal to all federal, state and local government web resources and services.